Latest Weather Observations for Nuriootpa

IDS60901

Issued at 10:01 pm CST Tuesday 30 June 2015 (issued every 10 minutes, with the page automatically refreshed every 10 minutes)

About weather observations | Map of Adelaide area stations | Latest observations for Adelaide area | Other Formats
Station Details ID: 023373 Name: NURIOOTPA VITICULTURAL Lat: -34.48 Lon: 139.01 Height: 275.0 m
Data from the previous 72 hours. | See also: Recent months at Nuriootpa
Date/Time
CST
Tmp

°C
App
Tmp
°C
Dew
Point
°C
Rel
Hum
%
Delta-T

°C
Wind Press
QNH
hPa
Press
MSL
hPa
Rain
since
9 am
mm
Dir
 
Spd
km/h
Gust
km/h
Spd
kts
Gust
kts
30/10:00pm 8.5 6.2 4.7 77 1.7 NE 6 7 3 4 1030.5 1030.9 0.0
30/09:30pm 8.4 5.9 4.8 78 1.6 SSE 7 9 4 5 1030.8 1031.2 0.0
30/09:00pm 8.4 6.2 5.1 80 1.5 NNW 6 7 3 4 1030.7 1031.1 0.0
30/08:30pm 8.5 7.4 5.2 80 1.5 CALM 0 0 0 0 1030.8 1031.2 0.0
30/08:00pm 8.7 6.4 4.9 77 1.7 W 6 7 3 4 1030.5 1030.9 0.0
30/07:30pm 9.0 6.6 4.3 72 2.1 SW 6 7 3 4 1030.6 1031.0 0.0
30/07:00pm 9.0 6.4 4.3 72 2.1 SW 7 9 4 5 1030.2 1030.5 0.0
30/06:30pm 9.3 6.2 3.8 68 2.4 SW 9 9 5 5 1029.9 1030.2 0.0
30/06:00pm 9.7 6.6 3.5 65 2.7 SW 9 13 5 7 1029.6 1029.9 0.0
30/05:30pm 10.0 6.9 3.4 63 2.9 SW 9 11 5 6 1029.1 1029.5 0.0
30/05:00pm 10.5 7.3 3.2 60 3.2 SW 9 15 5 8 1029.0 1029.4 0.0
30/04:30pm 11.0 7.4 3.0 58 3.5 SSW 11 13 6 7 1028.8 1029.2 0.0
30/04:00pm 11.4 8.0 2.1 53 4.0 SW 9 13 5 7 1028.6 1029.0 0.0
30/03:30pm 12.1 8.2 1.3 47 4.6 SW 11 17 6 9 1028.6 1029.0 0.0
30/03:00pm 11.4 8.0 1.8 51 4.1 SW 9 15 5 8 1028.7 1029.1 0.0
30/02:30pm 11.4 7.3 2.1 53 4.0 SW 13 19 7 10 1028.7 1029.1 0.0
30/02:00pm 11.3 7.1 1.4 50 4.2 SW 13 19 7 10 1028.7 1029.1 0.0
30/01:30pm 11.6 7.4 1.8 51 4.2 SW 13 19 7 10 1028.9 1029.3 0.0
30/01:00pm 11.6 7.4 1.5 50 4.3 SW 13 19 7 10 1029.1 1029.5 0.0
30/12:30pm 11.4 6.8 1.8 51 4.1 SW 15 20 8 11 1029.7 1030.0 0.0
30/12:00pm 11.5 8.6 1.7 51 4.2 SSW 6 9 3 5 1030.1 1030.4 0.0
30/11:30am 11.1 7.5 0.8 49 4.3 SSW 9 15 5 8 1030.6 1031.0 0.0
30/11:00am 10.9 7.9 1.1 51 4.1 SSW 6 11 3 6 1030.8 1031.2 0.0
30/10:30am 10.7 7.5 0.8 50 4.1 NNW 7 9 4 5 1030.9 1031.3 0.0
30/10:00am 8.7 7.2 3.1 68 2.4 CALM 0 0 0 0 1031.1 1031.5 0.0
30/09:30am 7.6 5.0 3.4 75 1.8 NNE 6 7 3 4 1030.9 1031.3 0.0
30/09:00am 6.8 5.4 3.3 78 1.5 CALM 0 0 0 0 1030.6 1031.0 0.0
30/08:30am 6.2 3.6 3.4 82 1.2 E 6 7 3 4 1030.4 1030.8 0.0
30/08:00am 6.0 3.4 3.4 83 1.1 NE 6 9 3 5 1030.2 1030.5 0.0
30/07:30am 5.8 4.0 3.4 84 1.0 NNE 2 7 1 4 1030.0 1030.3 0.0
30/07:00am 5.7 4.3 3.8 87 0.8 CALM 0 4 0 2 1029.6 1029.9 0.0
30/06:30am 5.9 4.1 3.3 83 1.1 SW 2 6 1 3 1029.4 1029.8 0.0
30/06:00am 5.8 4.5 3.9 88 0.8 CALM 0 0 0 0 1029.0 1029.4 0.0
30/05:30am 5.9 4.5 3.8 86 0.9 CALM 0 0 0 0 1029.0 1029.4 0.0
30/05:00am 5.9 3.4 3.8 86 0.9 ENE 6 7 3 4 1028.9 1029.3 0.0
30/04:30am 6.0 3.8 3.6 84 1.0 ESE 4 7 2 4 1028.8 1029.2 0.0
30/04:00am 6.2 4.8 3.6 83 1.1 CALM 0 0 0 0 1028.6 1029.0 0.0
30/03:30am 6.2 4.8 3.6 83 1.1 CALM 0 0 0 0 1028.8 1029.2 0.0
30/03:00am 6.3 3.8 3.5 82 1.2 NE 6 7 3 4 1028.6 1029.0 0.0
30/02:30am 6.4 4.3 3.8 83 1.1 NE 4 7 2 4 1028.9 1029.3 0.0
30/02:00am 6.6 5.2 3.8 82 1.2 CALM 0 0 0 0 1028.9 1029.3 0.0
30/01:30am 6.6 5.3 4.1 84 1.1 CALM 0 0 0 0 1029.1 1029.5 0.0
30/01:00am 6.7 5.4 3.9 82 1.2 CALM 0 0 0 0 1029.2 1029.6 0.0
30/12:30am 6.9 5.5 3.4 78 1.5 CALM 0 2 0 1 1029.7 1030.0 0.0
30/12:00am 6.9 4.8 4.1 82 1.2 SE 4 7 2 4 1030.0 1030.3 0.0
 
Date/Time
CST
Tmp

°C
App
Tmp
°C
Dew
Point
°C
Rel
Hum
%
Delta-T

°C
Wind Press
QNH
hPa
Press
MSL
hPa
Rain
since
9 am
mm
Dir
 
Spd
km/h
Gust
km/h
Spd
kts
Gust
kts
29/11:30pm 7.2 5.8 3.7 78 1.5 CALM 0 0 0 0 1030.1 1030.4 0.0
29/11:00pm 7.3 5.9 3.6 77 1.6 CALM 0 0 0 0 1030.1 1030.4 0.0
29/10:30pm 7.6 4.9 2.9 72 2.0 N 6 7 3 4 1030.2 1030.5 0.0
29/10:00pm 7.6 5.3 2.9 72 2.0 ENE 4 6 2 3 1030.4 1030.8 0.0
29/09:30pm 8.3 6.4 2.6 67 2.4 NE 2 6 1 3 1030.4 1030.8 0.0
29/09:00pm 8.4 5.5 1.6 62 2.8 ENE 6 7 3 4 1030.5 1030.9 0.0
29/08:30pm 8.7 5.8 1.7 61 2.9 NE 6 9 3 5 1030.6 1031.0 0.0
29/08:00pm 8.8 5.8 1.9 62 2.9 NE 7 9 4 5 1030.6 1031.0 0.0
29/07:30pm 8.7 6.3 2.3 64 2.7 ESE 4 7 2 4 1030.6 1031.0 0.0
29/07:00pm 9.4 6.3 1.2 56 3.4 ENE 7 11 4 6 1030.4 1030.8 0.0
29/06:30pm 9.2 6.1 1.5 58 3.2 ENE 7 11 4 6 1030.0 1030.3 0.0
29/06:00pm 9.4 6.3 1.5 58 3.3 ENE 7 11 4 6 1030.0 1030.3 0.0
29/05:30pm 9.7 6.2 1.0 54 3.6 ENE 9 13 5 7 1029.9 1030.2 0.0
29/05:00pm 10.1 6.6 1.2 54 3.7 NE 9 13 5 7 1029.9 1030.2 0.0
29/04:30pm 10.3 7.1 0.9 52 3.9 E 7 11 4 6 1029.9 1030.2 0.0
29/04:00pm 10.4 6.9 1.4 53 3.8 E 9 15 5 8 1029.8 1030.1 0.0
29/03:30pm 10.7 7.6 1.5 53 3.9 ENE 7 15 4 8 1030.0 1030.3 0.0
29/03:00pm 10.9 7.0 1.4 52 4.0 ENE 11 17 6 9 1030.1 1030.4 0.0
29/02:30pm 10.9 7.0 1.1 51 4.1 ENE 11 17 6 9 1030.2 1030.5 0.0
29/02:00pm 11.1 7.2 1.4 51 4.1 ENE 11 15 6 8 1030.5 1030.9 0.0
29/01:30pm 11.0 7.2 1.6 52 4.0 NE 11 17 6 9 1030.8 1031.2 0.0
29/01:00pm 11.0 7.1 1.3 51 4.1 NE 11 17 6 9 1031.2 1031.6 0.0
29/12:30pm 11.0 7.1 1.3 51 4.1 NE 11 17 6 9 1031.6 1032.0 0.0
29/12:00pm 10.8 7.1 2.2 55 3.7 NE 11 17 6 9 1032.2 1032.6 0.0
29/11:30am 10.7 7.4 2.6 57 3.5 NE 9 15 5 8 1032.8 1033.2 0.0
29/11:00am 10.1 7.5 4.0 66 2.7 NE 7 13 4 7 1033.2 1033.6 0.0
29/10:30am 8.9 8.0 6.1 82 1.3 CALM 0 0 0 0 1033.2 1033.6 0.0
29/10:00am 7.7 6.7 5.5 86 1.0 CALM 0 0 0 0 1033.5 1033.9 0.0
29/09:30am 6.3 5.1 4.7 89 0.7 CALM 0 0 0 0 1033.4 1033.7 0.0
29/09:00am 5.0 3.7 4.1 94 0.4 CALM 0 0 0 0 1033.1 1033.5 0.0
29/08:30am 3.9 2.4 3.2 95 0.3 CALM 0 0 0 0 1032.9 1033.3 0.0
29/08:00am 2.5 0.8 2.0 96 0.2 CALM 0 0 0 0 1032.8 1033.2 0.0
29/07:30am 1.7 -0.1 1.2 96 0.2 CALM 0 0 0 0 1032.7 1033.1 0.0
29/07:00am 0.9 -1.0 0.6 98 0.1 CALM 0 0 0 0 1032.6 1033.0 0.0
29/06:30am 0.3 - - - - CALM 0 0 0 0 1032.3 1032.7 0.0
29/06:00am -0.5 - - - - CALM 0 0 0 0 1032.2 1032.6 0.0
29/05:30am -1.5 - - - - CALM 0 0 0 0 1032.0 1032.4 0.0
29/05:00am -1.3 - - - - CALM 0 0 0 0 1031.8 1032.2 0.0
29/04:30am -1.5 - - - - CALM 0 0 0 0 1031.7 1032.1 0.0
29/04:00am -1.0 - - - - CALM 0 0 0 0 1031.9 1032.3 0.0
29/03:30am -0.9 - - - - CALM 0 0 0 0 1032.3 1032.7 0.0
29/03:00am -0.9 - - - - CALM 0 0 0 0 1032.4 1032.8 0.0
29/02:30am -0.8 - - - - NE 6 6 3 3 1032.6 1033.0 0.0
29/02:00am -0.5 - - - - CALM 0 0 0 0 1032.6 1033.0 0.0
29/01:30am -0.6 - - - - NE 6 7 3 4 1032.6 1033.0 0.0
29/01:00am 0.0 - - - - CALM 0 0 0 0 1032.8 1033.2 0.0
29/12:30am 0.0 - - - - CALM 0 0 0 0 1033.0 1033.4 0.0
29/12:00am 0.1 - - - - CALM 0 0 0 0 1033.4 1033.7 0.0
 
Date/Time
CST
Tmp

°C
App
Tmp
°C
Dew
Point
°C
Rel
Hum
%
Delta-T

°C
Wind Press
QNH
hPa
Press
MSL
hPa
Rain
since
9 am
mm
Dir
 
Spd
km/h
Gust
km/h
Spd
kts
Gust
kts
28/11:30pm 0.5 -1.5 -0.1 96 0.2 CALM 0 0 0 0 1033.7 1034.1 0.0
28/11:00pm 0.4 -1.6 0.1 98 0.1 CALM 0 0 0 0 1033.7 1034.1 0.0
28/10:30pm 0.9 -1.0 0.4 96 0.2 CALM 0 0 0 0 1033.8 1034.2 0.0
28/10:00pm 1.4 -0.5 0.6 94 0.3 CALM 0 0 0 0 1033.8 1034.2 0.0
28/09:30pm 1.7 -0.1 0.9 94 0.3 CALM 0 0 0 0 1033.8 1034.2 0.0
28/09:00pm 2.4 0.7 1.9 96 0.2 CALM 0 0 0 0 1033.8 1034.2 0.0
28/08:30pm 2.9 1.2 1.9 93 0.4 CALM 0 0 0 0 1033.7 1034.1 0.0
28/08:00pm 3.8 1.2 3.1 95 0.3 E 6 9 3 5 1033.7 1034.1 0.0
28/07:30pm 4.7 1.8 2.5 86 0.9 E 7 11 4 6 1033.7 1034.1 0.0
28/07:00pm 6.0 3.5 3.6 84 1.0 ESE 6 9 3 5 1033.6 1034.0 0.0
28/06:30pm 5.9 3.3 3.0 82 1.2 E 6 7 3 4 1033.5 1033.9 0.0
28/06:00pm 7.3 4.6 3.8 78 1.5 ESE 7 9 4 5 1033.0 1033.4 0.0
28/05:30pm 8.8 6.4 4.3 73 2.0 ESE 6 7 3 4 1032.8 1033.2 0.0
28/05:00pm 11.0 8.5 3.8 61 3.2 ENE 6 7 3 4 1032.5 1032.9 0.0
28/04:30pm 12.2 9.5 3.5 55 3.9 NE 7 11 4 6 1032.5 1032.9 0.0
28/04:00pm 12.6 10.0 3.2 52 4.2 E 6 9 3 5 1032.6 1033.0 0.0
28/03:30pm 12.9 9.7 3.0 51 4.4 NE 9 11 5 6 1032.8 1033.2 0.0
28/03:00pm 12.8 9.6 3.2 52 4.3 NNE 9 13 5 7 1032.9 1033.3 0.0
28/02:30pm 13.1 9.9 3.0 50 4.5 NE 9 15 5 8 1032.9 1033.3 0.0
28/02:00pm 13.0 9.1 3.4 52 4.4 NNE 13 17 7 9 1033.0 1033.4 0.0
28/01:30pm 13.3 9.5 4.1 53 4.2 ENE 13 17 7 9 1033.2 1033.6 0.0
28/01:00pm 11.8 7.7 4.6 61 3.3 NE 15 22 8 12 1033.5 1033.9 0.0
28/12:30pm 11.9 7.8 4.2 59 3.5 ENE 15 24 8 13 1033.9 1034.3 0.0
28/12:00pm 11.8 7.4 4.6 61 3.3 ENE 17 24 9 13 1034.2 1034.6 0.0
28/11:30am 11.9 7.5 4.7 61 3.3 NE 17 22 9 12 1034.7 1035.1 0.0
28/11:00am 11.4 7.5 5.3 66 2.8 NE 15 24 8 13 1035.0 1035.4 0.0
28/10:30am 11.0 7.2 5.6 69 2.5 ENE 15 20 8 11 1035.2 1035.6 0.0
28/10:00am 10.2 7.1 5.6 73 2.1 ENE 11 20 6 11 1035.1 1035.5 0.0
28/09:30am 8.6 6.3 5.5 81 1.4 NE 7 9 4 5 1035.0 1035.4 0.0
28/09:00am 5.9 3.5 4.3 89 0.7 NE 6 7 3 4 1034.9 1035.3 0.0
28/08:30am 2.9 0.1 2.1 94 0.3 NE 6 7 3 4 1034.7 1035.1 0.0
28/08:00am 0.7 -2.4 -0.1 94 0.3 NE 6 6 3 3 1034.6 1035.0 0.0
28/07:30am -1.1 - - - - NE 7 9 4 5 1034.3 1034.7 0.0
28/07:00am -0.9 - - - - CALM 0 0 0 0 1033.9 1034.3 0.0
28/06:30am -1.0 - - - - CALM 0 0 0 0 1033.4 1033.7 0.0
28/06:00am -0.4 - - - - CALM 0 0 0 0 1033.1 1033.5 0.0
28/05:30am -0.3 - - - - ENE 4 9 2 5 1033.0 1033.4 0.0
28/05:00am -0.4 - - - - NE 9 11 5 6 1032.9 1033.3 0.0
28/04:30am -0.1 - - - - ENE 6 7 3 4 1032.9 1033.3 0.0
28/04:00am 0.3 -2.8 0.3 100 0.0 NE 6 7 3 4 1033.0 1033.4 0.0
28/03:30am 0.1 - - - - ENE 7 9 4 5 1033.1 1033.5 0.0
28/03:00am 0.2 - - - - NE 7 9 4 5 1033.2 1033.6 0.0
28/02:30am 0.3 -1.7 0.1 99 0.1 CALM 0 0 0 0 1033.2 1033.6 0.0
28/02:00am 0.6 -1.4 0.1 96 0.2 CALM 0 0 0 0 1033.2 1033.6 0.0
28/01:30am 0.4 -2.7 0.1 98 0.1 E 6 7 3 4 1033.2 1033.6 0.0
28/01:00am 0.8 -2.2 0.5 98 0.1 NE 6 7 3 4 1033.2 1033.6 0.0
28/12:30am 1.4 -2.1 1.1 98 0.1 NE 9 9 5 5 1033.5 1033.9 0.0
28/12:00am 1.3 -1.7 0.8 96 0.2 NNE 6 7 3 4 1033.5 1033.9 0.0
 
Date/Time
CST
Tmp

°C
App
Tmp
°C
Dew
Point
°C
Rel
Hum
%
Delta-T

°C
Wind Press
QNH
hPa
Press
MSL
hPa
Rain
since
9 am
mm
Dir
 
Spd
km/h
Gust
km/h
Spd
kts
Gust
kts
27/11:30pm 1.6 -1.3 1.3 98 0.1 N 6 7 3 4 1033.5 1033.9 0.0
27/11:00pm 2.3 -0.5 1.8 96 0.2 N 6 7 3 4 1033.6 1034.0 0.0
27/10:30pm 2.1 0.0 1.8 98 0.1 ESE 2 6 1 3 1033.4 1033.7 0.0

Latest Capital City Observations: Canberra | Sydney | Melbourne | Brisbane | Adelaide | Perth | Hobart | Darwin

Other Formats:

Comma delimited format used in spreadsheet applications
http://www.bom.gov.au/fwo/IDS60901/IDS60901.94681.axf

JavaScript Object Notation format (JSON) in row-major order
http://www.bom.gov.au/fwo/IDS60901/IDS60901.94681.json